Time;durP1;ratioP1;P1;durP2;ratioP2;P2;SDS_P1;SDS_P2;PMS_P1;PMS_P2;Temp;Humidity;BMP_temperature;BMP_pressure;BME280_temperature;BME280_humidity;BME280_pressure;Samples;Min_cycle;Max_cycle;Signal;HPM_P1;HPM_P2
2023/04/28 00:02:20;;;;;;;6.28;4.07;;;13.90;51.80;;;16.70;38.42;97403.28;5029767;28;20064;-37
2023/04/28 00:04:48;;;;;;;5.20;4.07;;;13.90;52.00;;;16.69;38.54;97407.84;5031210;28;20045;-37
2023/04/28 00:07:16;;;;;;;6.30;3.78;;;13.90;52.10;;;16.70;38.70;97411.34;5031033;28;20409;-37
2023/04/28 00:09:43;;;;;;;8.27;4.63;;;13.90;52.50;;;16.73;38.69;97406.41;5023322;28;20520;-37
2023/04/28 00:12:11;;;;;;;6.22;3.78;;;13.90;52.40;;;16.74;38.29;97399.97;5031241;28;20041;-37
2023/04/28 00:14:39;;;;;;;8.48;4.70;;;13.90;52.30;;;16.76;38.59;97401.66;5031143;28;20048;-37
2023/04/28 00:17:08;;;;;;;5.38;4.07;;;13.90;52.80;;;16.73;38.51;97400.22;5030826;28;20045;-37
2023/04/28 00:19:37;;;;;;;7.30;4.05;;;13.90;52.70;;;16.71;38.60;97405.78;5031118;28;20068;-37
2023/04/28 00:22:05;;;;;;;8.27;4.10;;;13.90;52.60;;;16.72;38.57;97401.22;5031253;28;20053;-37
2023/04/28 00:24:32;;;;;;;6.15;4.10;;;13.90;52.50;;;16.71;38.47;97396.88;5030865;28;20041;-37
2023/04/28 00:27:01;;;;;;;7.55;3.92;;;13.90;52.60;;;16.71;38.52;97394.19;5030634;28;20049;-37
2023/04/28 00:29:28;;;;;;;6.32;3.95;;;13.80;52.80;;;16.70;38.70;97390.69;5030873;28;20056;-37
2023/04/28 00:31:56;;;;;;;5.53;3.90;;;13.80;53.10;;;16.69;38.73;97390.88;5029086;28;20044;-37
2023/04/28 00:34:24;;;;;;;7.60;4.10;;;13.80;53.10;;;16.67;38.68;97396.47;5029938;28;20056;-37
2023/04/28 00:36:51;;;;;;;7.63;4.78;;;13.70;53.40;;;16.67;38.89;97392.94;5029913;28;20049;-37
2023/04/28 00:39:19;;;;;;;5.65;3.85;;;13.70;53.80;;;16.65;39.07;97392.31;5029844;28;20058;-37
2023/04/28 00:41:47;;;;;;;6.85;4.47;;;13.70;54.20;;;16.59;39.13;97383.22;5013336;28;20604;-37
2023/04/28 00:44:15;;;;;;;5.70;4.00;;;13.70;53.90;;;16.59;39.23;97385.91;5013536;28;20057;-37
2023/04/28 00:46:43;;;;;;;5.85;4.22;;;13.70;53.90;;;16.59;39.20;97388.59;5030608;28;20041;-37
2023/04/28 00:49:11;;;;;;;5.28;4.18;;;13.70;53.80;;;16.61;38.95;97383.03;5029446;28;20591;-37
2023/04/28 00:51:38;;;;;;;7.35;3.72;;;13.70;53.90;;;16.62;39.11;97371.25;4994746;28;20103;-37
2023/04/28 00:54:06;;;;;;;6.90;4.35;;;13.80;53.80;;;16.66;39.30;97376.00;5030632;28;20057;-37
2023/04/28 00:56:34;;;;;;;5.90;3.22;;;13.70;54.00;;;16.66;39.06;97373.31;5030348;28;20041;-37
2023/04/28 00:59:02;;;;;;;7.25;3.60;;;13.80;54.00;;;16.68;39.19;97373.94;5012973;28;20064;-37
2023/04/28 01:01:30;;;;;;;5.65;3.63;;;13.70;54.00;;;16.68;39.33;97368.56;5030756;28;20045;-37
2023/04/28 01:03:58;;;;;;;4.18;3.15;;;13.80;54.20;;;16.69;39.28;97370.22;5029859;28;20045;-37
2023/04/28 01:06:28;;;;;;;4.25;3.30;;;13.70;54.40;;;16.68;39.36;97371.25;5029599;28;20049;-37
2023/04/28 01:08:59;;;;;;;3.33;2.97;;;13.70;54.70;;;16.67;39.38;97366.06;5029646;28;20054;-37
2023/04/28 01:11:26;;;;;;;8.15;3.70;;;13.70;54.90;;;16.69;39.63;97367.53;5029276;28;20513;-37
2023/04/28 01:14:11;;;;;;;5.95;3.08;;;13.70;55.00;;;16.70;39.74;97357.59;5048666;28;20053;-36
2023/04/28 01:16:41;;;;;;;3.28;2.95;;;13.70;55.20;;;16.66;39.80;97353.69;5032626;28;20053;-37
2023/04/28 01:19:23;;;;;;;5.25;3.10;;;13.70;55.10;;;16.64;40.02;97345.81;5033133;28;20041;-37
2023/04/28 01:21:52;;;;;;;6.20;3.15;;;13.80;55.70;;;16.64;40.01;97345.00;5010108;28;20045;-37
2023/04/28 01:24:21;;;;;;;5.38;3.67;;;13.80;55.10;;;16.63;40.05;97343.34;5034309;28;20053;-37
2023/04/28 01:26:49;;;;;;;4.18;3.67;;;13.80;55.00;;;16.65;40.20;97341.25;5025267;28;20513;-37
2023/04/28 01:29:17;;;;;;;4.20;3.08;;;13.90;55.20;;;16.67;40.30;97334.66;5033503;28;20057;-37
2023/04/28 01:31:44;;;;;;;4.97;2.90;;;13.90;55.30;;;16.67;40.37;97337.34;5033049;28;20045;-37
2023/04/28 01:34:12;;;;;;;4.25;3.20;;;13.80;55.70;;;16.65;40.57;97330.50;5033953;28;20041;-37
2023/04/28 01:36:41;;;;;;;5.35;3.38;;;13.80;56.20;;;16.60;40.74;97333.84;5032630;28;20053;-37
2023/04/28 01:39:10;;;;;;;5.63;3.92;;;13.80;56.20;;;16.60;40.93;97330.31;5032737;28;20056;-37
2023/04/28 01:41:40;;;;;;;6.97;3.20;;;13.80;56.40;;;16.60;41.03;97333.84;5032650;28;20045;-37
2023/04/28 01:44:07;;;;;;;8.32;4.57;;;13.80;56.40;;;16.64;40.90;97332.38;5016788;28;20527;-37
2023/04/28 01:46:35;;;;;;;5.43;3.50;;;13.80;56.50;;;16.66;41.00;97326.81;5031959;28;20461;-36
2023/04/28 01:49:03;;;;;;;5.82;3.42;;;13.80;56.80;;;16.66;40.90;97324.94;5032627;28;20057;-37
2023/04/28 01:51:31;;;;;;;5.85;3.72;;;13.80;56.80;;;16.67;40.95;97325.75;5033003;28;20041;-37
2023/04/28 01:53:59;;;;;;;5.55;3.50;;;13.80;56.80;;;16.67;41.17;97320.38;5032064;28;20068;-37
2023/04/28 01:56:26;;;;;;;5.30;3.38;;;13.80;57.10;;;16.64;41.13;97313.56;5032312;28;20038;-37
2023/04/28 01:58:56;;;;;;;5.78;3.70;;;13.80;57.30;;;16.65;41.29;97315.22;5032690;28;20054;-37
2023/04/28 02:01:24;;;;;;;4.97;3.75;;;13.80;57.30;;;16.66;41.18;97305.31;5032442;28;20048;-36
2023/04/28 02:03:53;;;;;;;4.57;3.72;;;13.80;57.10;;;16.66;41.15;97303.44;5032156;28;20038;-37
2023/04/28 02:06:23;;;;;;;4.63;3.72;;;13.90;57.20;;;16.65;41.11;97301.78;5032137;28;20041;-37
2023/04/28 02:08:50;;;;;;;4.40;3.42;;;13.90;57.00;;;16.68;41.46;97312.13;5024849;28;20049;-37
2023/04/28 02:11:18;;;;;;;6.85;3.15;;;13.90;57.20;;;16.73;41.07;97314.19;5032538;28;20053;-36
2023/04/28 02:13:45;;;;;;;4.75;3.20;;;13.90;57.00;;;16.78;41.08;97311.69;5032424;28;20402;-37
2023/04/28 02:16:13;;;;;;;9.18;4.00;;;13.90;57.10;;;16.80;41.16;97306.09;5033092;28;20045;-37
2023/04/28 02:18:42;;;;;;;5.13;3.42;;;13.90;57.10;;;16.79;41.03;97307.13;5031924;28;20045;-36
2023/04/28 02:21:11;;;;;;;6.55;3.92;;;13.90;57.20;;;16.82;41.10;97309.44;5033306;28;20041;-37
2023/04/28 02:23:39;;;;;;;5.55;3.33;;;13.90;57.20;;;16.84;41.26;97307.38;5031541;28;20071;-37
2023/04/28 02:26:07;;;;;;;8.00;3.47;;;13.90;57.50;;;16.86;41.13;97302.63;5031517;28;20053;-37
2023/04/28 02:28:34;;;;;;;7.00;3.72;;;13.90;57.70;;;16.86;41.12;97299.91;5031762;28;20053;-37
2023/04/28 02:31:10;;;;;;;5.43;3.50;;;13.90;57.70;;;16.81;41.56;97300.53;5032410;28;20049;-37
2023/04/28 02:33:38;;;;;;;4.97;4.38;;;13.90;58.60;;;16.72;42.24;97307.16;5031529;28;20064;-37
2023/04/28 02:36:07;;;;;;;6.50;4.88;;;13.70;60.10;;;16.63;42.42;97324.53;5031510;28;20041;-36
2023/04/28 02:38:35;;;;;;;6.95;5.40;;;13.50;62.10;;;16.47;42.81;97328.44;5032655;28;20045;-36
2023/04/28 02:41:05;;;;;;;8.38;5.40;;;13.20;62.90;;;16.36;42.97;97331.75;5033001;28;20041;-36
2023/04/28 02:43:33;;;;;;;9.05;5.90;;;13.10;62.80;;;16.32;43.03;97334.00;5032744;28;20048;-37
2023/04/28 02:46:04;;;;;;;5.50;4.95;;;13.20;62.80;;;16.33;43.27;97333.00;5030649;28;20045;-36
2023/04/28 02:48:34;;;;;;;7.28;4.97;;;13.20;63.30;;;16.36;43.33;97339.81;5031257;28;20517;-37
2023/04/28 02:51:02;;;;;;;7.07;5.07;;;13.20;63.10;;;16.36;43.64;97337.94;5031591;28;20053;-36
2023/04/28 02:53:31;;;;;;;6.65;5.20;;;13.30;63.30;;;16.36;43.83;97332.56;5014522;28;20057;-37
2023/04/28 02:56:00;;;;;;;6.18;5.03;;;13.30;64.30;;;16.36;44.13;97342.50;5032204;28;20493;-36
2023/04/28 02:58:29;;;;;;;9.10;5.05;;;13.30;65.10;;;16.35;44.63;97333.63;5031175;28;20046;-37
2023/04/28 03:00:56;;;;;;;6.95;4.97;;;13.30;66.00;;;16.36;44.52;97334.44;5031651;28;20056;-37
2023/04/28 03:03:24;;;;;;;8.40;5.60;;;13.20;65.80;;;16.36;44.13;97331.75;5033221;28;20049;-37
2023/04/28 03:05:52;;;;;;;6.50;4.97;;;13.30;66.00;;;16.32;44.74;97328.63;5030774;28;20041;-37
2023/04/28 03:08:21;;;;;;;8.15;6.18;;;13.20;66.90;;;16.29;44.99;97321.84;5031651;28;20052;-36
2023/04/28 03:10:48;;;;;;;9.10;5.72;;;13.20;67.70;;;16.28;45.31;97314.78;5030601;28;20045;-36
2023/04/28 03:13:16;;;;;;;8.35;5.97;;;13.10;68.70;;;16.27;45.73;97310.47;5030553;28;20524;-36
2023/04/28 03:15:43;;;;;;;9.38;6.38;;;13.20;69.50;;;16.26;45.55;97310.66;5030816;28;20425;-36
2023/04/28 03:18:11;;;;;;;10.18;5.72;;;13.10;70.00;;;16.24;45.88;97310.88;5031979;28;20216;-37
2023/04/28 03:20:39;;;;;;;7.50;6.53;;;13.10;70.80;;;16.22;46.06;97301.38;5030950;28;20053;-36
2023/04/28 03:23:07;;;;;;;9.10;6.07;;;13.10;72.10;;;16.22;46.21;97298.69;5030736;28;20049;-36
2023/04/28 03:25:35;;;;;;;8.70;6.00;;;13.10;71.40;;;16.23;46.45;97300.34;5030324;28;20053;-36
2023/04/28 03:28:02;;;;;;;7.22;6.00;;;13.20;71.10;;;16.21;46.17;97295.19;5030270;28;20402;-38
2023/04/28 03:30:30;;;;;;;9.23;6.38;;;13.10;71.60;;;16.21;46.45;97291.69;5031122;28;20061;-36
2023/04/28 03:32:58;;;;;;;7.78;5.97;;;13.10;71.50;;;16.19;46.47;97289.19;5030832;28;20386;-36
2023/04/28 03:35:25;;;;;;;7.15;6.13;;;13.00;72.00;;;16.17;46.79;97291.25;5029562;28;20050;-36
2023/04/28 03:37:53;;;;;;;6.60;5.55;;;13.00;72.10;;;16.16;46.49;97281.53;5030078;28;20041;-36
2023/04/28 03:40:21;;;;;;;10.18;6.40;;;13.00;72.20;;;16.17;46.57;97276.97;5014653;28;20527;-36
2023/04/28 03:43:04;;;;;;;8.43;5.47;;;13.00;72.50;;;16.17;46.79;97279.66;5030979;28;20050;-36
2023/04/28 03:45:36;;;;;;;7.65;6.05;;;13.00;73.00;;;16.14;46.78;97280.91;5031338;28;20400;-36
2023/04/28 03:48:04;;;;;;;9.98;6.70;;;12.90;72.40;;;16.10;47.00;97271.63;5022046;28;20065;-36
2023/04/28 03:50:32;;;;;;;8.32;5.32;;;12.90;73.00;;;16.10;47.20;97269.75;5031363;28;20509;-36
2023/04/28 03:53:01;;;;;;;11.27;6.22;;;12.90;74.10;;;16.08;47.40;97266.44;5028285;28;20057;-36
2023/04/28 03:55:28;;;;;;;8.27;5.72;;;12.90;74.70;;;16.06;47.44;97270.38;5031360;28;20038;-36
2023/04/28 03:57:56;;;;;;;9.32;5.53;;;12.90;75.20;;;16.03;47.44;97270.78;5022370;28;20064;-36
2023/04/28 04:00:23;;;;;;;9.35;5.28;;;12.90;74.30;;;15.99;46.99;97269.53;5030494;28;20044;-36
2023/04/28 04:02:53;;;;;;;7.85;5.20;;;12.80;73.40;;;15.97;47.17;97267.03;5030098;28;20037;-36
2023/04/28 04:05:21;;;;;;;6.22;4.55;;;12.80;73.10;;;15.99;46.98;97266.84;5031093;28;20042;-36
2023/04/28 04:07:49;;;;;;;6.10;4.25;;;12.90;72.50;;;15.99;46.73;97266.84;5029503;28;20496;-36
2023/04/28 04:10:16;;;;;;;7.22;4.20;;;12.90;72.50;;;16.00;46.94;97265.84;5031407;28;20053;-36
2023/04/28 04:12:44;;;;;;;7.22;4.35;;;12.90;72.40;;;15.98;46.91;97263.34;5030143;28;20060;-36
2023/04/28 04:15:12;;;;;;;5.78;4.13;;;12.90;72.20;;;15.96;46.96;97267.28;5029807;28;20042;-36
2023/04/28 04:17:42;;;;;;;9.43;5.18;;;12.90;72.60;;;15.97;47.21;97266.22;5013573;28;20045;-36
2023/04/28 04:20:10;;;;;;;5.90;4.57;;;12.90;72.40;;;15.99;47.11;97269.53;5013347;28;20056;-36
2023/04/28 04:22:38;;;;;;;8.43;5.00;;;12.90;72.00;;;16.00;46.88;97268.53;5029852;28;20042;-36
2023/04/28 04:25:06;;;;;;;8.40;4.82;;;12.90;72.10;;;16.00;46.75;97269.34;5029543;28;20421;-36
2023/04/28 04:27:35;;;;;;;6.10;4.20;;;12.90;71.90;;;16.01;47.00;97264.78;5030740;28;20053;-36
2023/04/28 04:30:03;;;;;;;9.93;5.05;;;13.00;72.00;;;16.06;46.51;97271.19;5029517;28;20049;-36
2023/04/28 04:32:30;;;;;;;7.78;4.50;;;13.00;71.50;;;16.10;46.95;97266.25;5031080;28;20056;-36
2023/04/28 04:34:58;;;;;;;9.30;4.57;;;13.00;71.20;;;16.15;46.70;97255.72;5030022;28;20064;-36
2023/04/28 04:37:26;;;;;;;7.47;4.90;;;13.10;71.00;;;16.18;46.50;97259.84;5029700;28;20042;-36
2023/04/28 04:40:03;;;;;;;7.43;5.20;;;13.10;70.80;;;16.23;46.30;97268.94;5022432;28;20048;-36
2023/04/28 04:42:37;;;;;;;6.82;4.75;;;13.20;70.30;;;16.27;46.32;97262.13;5030671;28;20505;-36
2023/04/28 04:45:07;;;;;;;10.77;4.78;;;13.20;70.10;;;16.27;46.15;97259.44;5029268;28;20402;-36
2023/04/28 04:47:35;;;;;;;7.25;4.85;;;13.20;70.00;;;16.29;46.34;97245.81;5031671;28;20054;-36
2023/04/28 04:50:03;;;;;;;7.32;4.25;;;13.20;70.30;;;16.27;46.38;97246.00;5033859;28;20048;-36
2023/04/28 04:52:31;;;;;;;7.82;4.55;;;13.20;70.50;;;16.28;46.86;97247.63;5033390;28;20045;-36
2023/04/28 04:54:59;;;;;;;7.40;4.40;;;13.20;71.00;;;16.29;47.03;97240.44;5033440;28;20041;-36
2023/04/28 04:57:26;;;;;;;5.82;4.00;;;13.20;71.60;;;16.33;46.77;97242.47;5033330;28;20049;-36
2023/04/28 05:00:16;;;;;;;6.40;4.47;;;13.30;71.00;;;16.37;46.51;97255.50;5028531;28;20421;-36
2023/04/28 05:02:44;;;;;;;6.65;4.07;;;13.30;70.90;;;16.34;46.92;97257.59;5032856;28;20049;-36
2023/04/28 05:05:14;;;;;;;7.05;4.53;;;13.30;71.20;;;16.36;47.02;97254.66;5033005;28;20049;-36
2023/04/28 05:08:08;;;;;;;;;;;13.30;71.90;;;16.44;46.49;97248.25;5040893;28;20053;-36
2023/04/28 05:10:36;;;;;;;4.90;3.78;;;13.30;73.30;;;16.36;46.97;97251.97;5034557;28;19925;-37
2023/04/28 05:13:04;;;;;;;6.10;3.47;;;13.20;72.50;;;16.30;46.87;97242.06;5033221;28;20417;-36
2023/04/28 05:15:32;;;;;;;4.25;3.60;;;13.20;71.60;;;16.29;46.97;97243.94;5032770;28;20046;-36
2023/04/28 05:18:14;;;;;;;7.75;2.97;;;13.30;71.10;;;16.32;47.01;97262.34;5033346;28;20409;-37
2023/04/28 05:20:42;;;;;;;4.85;3.13;;;13.30;71.00;;;16.32;46.95;97261.50;5033462;28;20045;-37
2023/04/28 05:23:11;;;;;;;3.60;3.03;;;13.40;71.10;;;16.33;47.04;97263.16;5033191;28;20049;-37
2023/04/28 05:25:38;;;;;;;3.97;2.95;;;13.30;71.40;;;16.33;47.22;97266.66;5032994;28;20053;-37
2023/04/28 05:28:09;;;;;;;6.13;3.42;;;13.40;71.40;;;16.40;47.10;97261.31;5033013;28;20045;-37
2023/04/28 05:30:37;;;;;;;3.75;3.22;;;13.40;71.30;;;16.45;47.05;97257.97;5016562;28;20531;-37
2023/04/28 05:33:04;;;;;;;3.65;3.05;;;13.50;72.00;;;16.48;47.27;97258.41;5032611;28;20056;-37
2023/04/28 05:35:32;;;;;;;3.80;2.88;;;13.40;72.00;;;16.47;47.50;97255.91;5032776;28;20041;-45
2023/04/28 05:38:00;;;;;;;4.43;3.63;;;13.40;72.90;;;16.48;47.83;97252.19;5032490;28;20417;-46
2023/04/28 05:40:28;;;;;;;8.15;3.60;;;13.40;73.20;;;16.51;48.11;97259.84;5016646;28;20046;-45
2023/04/28 05:42:55;;;;;;;4.78;3.38;;;13.50;73.60;;;16.52;47.93;97248.88;5032377;28;20054;-46
2023/04/28 05:45:24;;;;;;;4.20;3.17;;;13.50;73.80;;;16.50;48.15;97242.88;5032460;28;20037;-46
2023/04/28 05:47:51;;;;;;;5.70;3.50;;;13.50;74.30;;;16.51;48.47;97241.03;5032303;28;20069;-45
2023/04/28 05:50:20;;;;;;;6.25;3.70;;;13.50;75.20;;;16.53;48.25;97247.00;5032398;28;20045;-44
2023/04/28 05:52:49;;;;;;;4.72;3.58;;;13.50;74.50;;;16.51;48.50;97238.34;5032863;28;20041;-45
2023/04/28 05:55:17;;;;;;;7.72;4.10;;;13.60;74.80;;;16.49;48.89;97238.53;5032445;28;20401;-47
2023/04/28 05:57:45;;;;;;;4.35;3.60;;;13.60;75.10;;;16.49;48.83;97235.84;5014617;28;20056;-47
2023/04/28 06:00:21;;;;;;;5.15;3.30;;;13.60;75.70;;;16.50;49.19;97232.16;5031562;28;20048;-45
2023/04/28 06:02:49;;;;;;;6.75;3.67;;;13.60;76.10;;;16.50;49.06;97236.69;5032522;28;20436;-46
2023/04/28 06:05:17;;;;;;;5.05;3.25;;;13.50;76.90;;;16.49;49.42;97245.78;5032254;28;20532;-45
2023/04/28 06:07:46;;;;;;;4.75;3.05;;;13.50;77.40;;;16.45;49.52;97233.81;5031961;28;20053;-45
2023/04/28 06:10:18;;;;;;;9.10;4.03;;;13.40;78.10;;;16.43;49.86;97238.56;5032727;28;20053;-46
2023/04/28 06:12:45;;;;;;;5.13;3.53;;;13.40;78.60;;;16.43;49.89;97235.88;5031581;28;20409;-45
2023/04/28 06:15:13;;;;;;;7.57;3.60;;;13.40;78.80;;;16.43;49.97;97247.44;5032010;28;20516;-46
2023/04/28 06:17:41;;;;;;;10.82;4.15;;;13.40;79.00;;;16.44;49.97;97240.19;5033198;28;20079;-46
2023/04/28 06:20:11;;;;;;;5.53;3.67;;;13.40;79.00;;;16.48;49.93;97238.78;5032553;28;20042;-45
2023/04/28 06:22:40;;;;;;;5.03;3.40;;;13.50;79.60;;;16.50;50.08;97237.50;5032096;28;20037;-47
2023/04/28 06:25:08;;;;;;;4.47;3.40;;;13.50;79.50;;;16.59;50.10;97239.97;5031874;28;20049;-46
2023/04/28 06:27:43;;;;;;;5.18;3.28;;;13.60;80.30;;;16.64;49.91;97240.19;5030909;28;20314;-45
2023/04/28 06:30:18;;;;;;;5.97;3.17;;;13.60;79.70;;;16.63;50.05;97233.97;5032068;28;20524;-46
2023/04/28 06:32:47;;;;;;;7.13;3.38;;;13.70;80.60;;;16.68;50.54;97238.72;5033067;28;20421;-46
2023/04/28 06:35:15;;;;;;;3.67;2.92;;;13.70;80.80;;;16.69;50.50;97232.31;5031781;28;20497;-45
2023/04/28 06:37:43;;;;;;;6.05;3.70;;;13.70;81.30;;;16.72;50.56;97235.41;5015010;28;20052;-45
2023/04/28 06:40:11;;;;;;;5.10;3.55;;;13.70;81.50;;;16.73;50.76;97229.00;5032941;28;20493;-45
2023/04/28 06:42:42;;;;;;;6.05;3.58;;;13.70;82.00;;;16.76;50.50;97241.19;5031280;28;20057;-45
2023/04/28 06:45:19;;;;;;;4.70;2.85;;;13.80;81.90;;;16.81;50.67;97227.09;5031486;28;20049;-45
2023/04/28 06:47:47;;;;;;;4.95;3.47;;;13.80;82.10;;;16.77;50.77;97228.56;5031219;28;20068;-45
2023/04/28 06:50:15;;;;;;;4.43;3.42;;;13.80;82.20;;;16.76;51.02;97230.44;5032257;28;20045;-48
2023/04/28 06:52:42;;;;;;;5.57;3.47;;;13.80;82.80;;;16.77;51.16;97225.88;5029385;28;20064;-46
2023/04/28 06:55:16;;;;;;;4.00;3.00;;;13.80;82.80;;;16.77;51.07;97234.78;5029651;28;20041;-46
2023/04/28 06:57:44;;;;;;;4.32;3.53;;;13.80;83.40;;;16.75;51.53;97226.13;5030852;28;20046;-44
2023/04/28 07:00:12;;;;;;;4.63;3.20;;;13.80;84.20;;;16.75;51.52;97220.72;5031043;28;20425;-45
2023/04/28 07:02:40;;;;;;;4.50;3.13;;;13.80;84.10;;;16.76;51.51;97213.50;5032588;28;20045;-45
2023/04/28 07:05:08;;;;;;;6.00;4.05;;;13.80;84.60;;;16.75;51.84;97209.97;5024030;28;20033;-46
2023/04/28 07:07:37;;;;;;;3.42;3.05;;;13.80;85.40;;;16.76;51.54;97210.81;5032210;28;20049;-44
2023/04/28 07:10:06;;;;;;;5.32;3.60;;;13.80;85.80;;;16.79;52.19;97216.59;5032330;28;20037;-45
2023/04/28 07:12:33;;;;;;;4.97;3.55;;;13.80;87.80;;;16.80;52.14;97218.22;5032246;28;20060;-46
2023/04/28 07:15:01;;;;;;;5.63;3.33;;;13.80;89.30;;;16.83;52.28;97209.78;5032078;28;20389;-45
2023/04/28 07:17:28;;;;;;;3.75;2.70;;;13.80;90.50;;;16.85;52.42;97217.63;5031968;28;20037;-45
2023/04/28 07:19:56;;;;;;;4.88;3.78;;;13.80;91.60;;;16.83;53.13;97211.66;5032089;28;20449;-45
2023/04/28 07:22:24;;;;;;;4.82;3.30;;;13.80;93.70;;;16.87;52.90;97221.75;5031240;28;20041;-45
2023/04/28 07:24:51;;;;;;;5.55;3.47;;;13.80;94.70;;;16.88;53.15;97215.31;5032011;28;20041;-46
2023/04/28 07:27:19;;;;;;;5.25;3.67;;;13.90;96.10;;;16.93;52.96;97215.53;5030665;28;20072;-47
2023/04/28 07:29:46;;;;;;;4.82;3.30;;;13.90;97.10;;;16.94;52.99;97213.66;5031921;28;20053;-47
2023/04/28 07:32:14;;;;;;;4.95;3.95;;;13.90;98.60;;;16.96;53.25;97218.81;5032157;28;20048;-47
2023/04/28 07:34:42;;;;;;;5.32;3.35;;;13.90;99.60;;;16.97;53.40;97225.88;5031859;28;20492;-47
2023/04/28 07:37:10;;;;;;;4.03;3.22;;;13.90;99.90;;;16.97;53.66;97225.88;5032110;28;20046;-47
2023/04/28 07:39:39;;;;;;;5.47;3.60;;;13.90;99.90;;;16.98;53.73;97227.50;5031913;28;20045;-48
2023/04/28 07:42:07;;;;;;;4.47;3.40;;;13.90;99.90;;;16.98;53.88;97219.44;5031981;28;20045;-46
2023/04/28 07:44:35;;;;;;;4.38;3.97;;;13.90;99.90;;;16.86;54.73;97228.16;5031603;28;20041;-45
2023/04/28 07:47:03;;;;;;;6.68;5.03;;;13.70;99.90;;;16.81;55.02;97238.69;5031470;28;20049;-47
2023/04/28 07:49:32;;;;;;;11.68;6.57;;;13.70;99.90;;;16.70;55.61;97240.16;5031216;28;20042;-45
2023/04/28 07:52:00;;;;;;;11.00;6.47;;;13.50;99.90;;;16.64;55.78;97234.81;5031667;28;20053;-46
2023/04/28 07:54:27;;;;;;;6.03;5.18;;;13.50;99.90;;;16.43;56.69;97235.88;5031577;28;20050;-46
2023/04/28 07:56:56;;;;;;;9.57;6.25;;;13.30;99.90;;;16.28;57.25;97242.28;5030959;28;20108;-49
2023/04/28 07:59:24;;;;;;;7.57;5.70;;;13.10;99.90;;;16.14;57.32;97244.13;5031612;28;20048;-45
2023/04/28 08:01:52;;;;;;;7.68;5.60;;;13.00;99.90;;;16.07;57.59;97264.81;5031767;28;20493;-47
2023/04/28 08:04:19;;;;;;;7.75;6.65;;;12.90;99.90;;;15.93;58.03;97265.81;5031581;28;20041;-46
2023/04/28 08:06:47;;;;;;;6.70;6.00;;;12.80;99.90;;;15.82;58.36;97274.44;5031130;28;20414;-45
2023/04/28 08:09:15;;;;;;;6.30;5.45;;;12.70;99.90;;;15.68;58.92;97266.38;5031602;28;20045;-50
2023/04/28 08:11:43;;;;;;;7.70;6.18;;;12.60;99.90;;;15.68;58.79;97269.06;5031226;28;20056;-46
2023/04/28 08:14:11;;;;;;;6.32;5.13;;;12.60;99.90;;;15.71;58.84;97265.94;5031183;28;20049;-47
2023/04/28 08:16:40;;;;;;;7.78;5.50;;;12.70;99.90;;;15.81;58.58;97275.50;5030995;28;20056;-47
2023/04/28 08:19:08;;;;;;;6.32;4.30;;;12.70;99.90;;;15.90;58.77;97269.75;5030772;28;20037;-48
2023/04/28 08:21:35;;;;;;;6.68;5.47;;;12.80;99.90;;;15.94;58.83;97276.34;5013298;28;20045;-51
2023/04/28 08:24:03;;;;;;;7.03;5.25;;;12.90;99.90;;;16.01;58.52;97275.53;5031108;28;20049;-47
2023/04/28 08:26:31;;;;;;;15.30;8.60;;;12.90;99.90;;;16.07;58.62;97266.66;5031011;28;20050;-46
2023/04/28 08:28:58;;;;;;;18.90;10.73;;;13.00;99.90;;;16.08;58.98;97261.06;5029986;28;20060;-48
2023/04/28 08:31:26;;;;;;;19.58;11.73;;;13.00;99.90;;;16.15;58.97;97258.41;5031220;28;20425;-45
2023/04/28 08:33:54;;;;;;;14.75;9.15;;;13.10;99.90;;;16.23;58.84;97268.13;5030659;28;20520;-46
2023/04/28 08:36:24;;;;;;;9.02;4.93;;;13.20;99.90;;;16.29;58.80;97272.66;5030779;28;20069;-45
2023/04/28 08:38:52;;;;;;;3.88;2.90;;;13.30;99.90;;;16.33;58.83;97288.16;5029866;28;20049;-45
2023/04/28 08:41:20;;;;;;;2.28;1.65;;;13.30;99.90;;;16.40;58.48;97279.25;5031139;28;20041;-46
2023/04/28 08:43:48;;;;;;;3.00;1.80;;;13.40;99.90;;;16.47;58.56;97290.84;5029565;28;20045;-48
2023/04/28 08:46:20;;;;;;;3.67;2.58;;;13.40;99.90;;;16.56;58.78;97289.59;5030662;28;20416;-46
2023/04/28 08:48:49;;;;;;;2.17;1.90;;;13.60;99.90;;;16.63;58.28;97286.91;5029844;28;20049;-45
2023/04/28 08:51:36;;;;;;;2.47;1.95;;;13.60;99.90;;;16.70;58.18;97283.16;5031040;28;20045;-47
2023/04/28 08:54:07;;;;;;;3.15;2.05;;;13.70;99.90;;;16.81;58.03;97291.63;5031046;28;20049;-45
2023/04/28 08:56:37;;;;;;;1.98;1.73;;;13.70;99.90;;;16.82;58.33;97280.69;5030748;28;20042;-47
2023/04/28 08:59:05;;;;;;;2.97;2.08;;;13.80;99.90;;;16.86;58.44;97287.31;5030140;28;20409;-46
2023/04/28 09:01:33;;;;;;;3.42;1.88;;;13.80;99.90;;;16.88;58.36;97287.09;5029789;28;20048;-47
2023/04/28 09:04:02;;;;;;;3.53;1.90;;;13.80;99.90;;;16.89;58.48;97291.44;5030672;28;20420;-45
2023/04/28 09:06:36;;;;;;;2.80;1.90;;;13.80;99.90;;;16.90;58.59;97295.78;5030322;28;20140;-46
2023/04/28 09:09:22;;;;;;;3.33;2.00;;;13.80;99.90;;;16.95;58.35;97295.97;5030841;28;20056;-46
2023/04/28 09:11:54;;;;;;;2.05;1.70;;;13.80;99.90;;;16.99;58.41;97294.53;5030659;28;20076;-45
2023/04/28 09:14:22;;;;;;;2.50;2.20;;;13.90;99.90;;;16.98;58.75;97300.91;5030577;28;20390;-46
2023/04/28 09:16:51;;;;;;;3.95;2.55;;;13.90;99.90;;;16.99;58.83;97294.53;5030421;28;20057;-46
2023/04/28 09:19:19;;;;;;;5.32;2.88;;;13.90;99.90;;;17.05;58.44;97309.00;5030544;28;20041;-46
2023/04/28 09:21:53;;;;;;;5.82;2.60;;;14.00;99.90;;;17.10;58.79;97317.25;5031088;28;20401;-47
2023/04/28 09:24:35;;;;;;;3.80;3.47;;;14.10;99.90;;;17.06;58.65;97314.16;5023517;28;20517;-46
2023/04/28 09:27:06;;;;;;;5.20;3.20;;;14.00;99.90;;;17.10;58.86;97317.25;5030512;28;20049;-49
2023/04/28 09:29:34;;;;;;;4.65;3.63;;;14.00;99.90;;;17.15;59.27;97308.56;5030351;28;20049;-45
2023/04/28 09:32:17;;;;;;;5.88;4.32;;;14.10;99.90;;;17.17;58.87;97301.91;5030640;28;20501;-46
2023/04/28 09:34:49;;;;;;;6.38;4.68;;;14.10;99.90;;;17.20;58.99;97306.88;5032898;28;20056;-44
2023/04/28 09:37:22;;;;;;;4.45;3.90;;;14.10;99.90;;;17.21;59.06;97307.69;5024938;28;20064;-47
2023/04/28 09:39:54;;;;;;;4.30;3.90;;;14.00;99.90;;;17.28;59.07;97298.56;5034294;28;20049;-45
2023/04/28 09:42:42;;;;;;;3.90;3.08;;;14.20;99.90;;;17.38;58.88;97300.00;5026645;28;20041;-45
2023/04/28 09:45:15;;;;;;;3.88;3.47;;;14.30;99.90;;;17.49;58.90;97296.63;5034003;28;20391;-46
2023/04/28 09:47:48;;;;;;;5.82;3.45;;;14.50;99.90;;;17.64;59.13;97297.19;5033927;28;20428;-46
2023/04/28 09:50:17;;;;;;;5.93;3.30;;;14.70;99.90;;;17.85;59.03;97292.53;5034148;28;20041;-46
2023/04/28 09:52:56;;;;;;;4.07;2.72;;;14.90;99.90;;;17.95;58.79;97290.22;5034011;28;20401;-46
2023/04/28 09:55:27;;;;;;;3.30;2.80;;;15.10;99.90;;;18.09;59.14;97290.97;5021329;28;20049;-46
2023/04/28 09:57:55;;;;;;;3.75;2.53;;;15.20;99.90;;;18.19;58.81;97287.78;5032275;28;20060;-46
2023/04/28 10:00:23;;;;;;;4.78;2.67;;;15.30;99.90;;;18.25;58.69;97290.41;5032570;28;20037;-46
2023/04/28 10:02:51;;;;;;;3.22;1.85;;;15.40;99.90;;;18.35;58.75;97302.56;5032660;28;20050;-45
2023/04/28 10:05:21;;;;;;;2.50;1.80;;;15.60;99.90;;;18.25;59.28;97295.78;5032559;28;20494;-45
2023/04/28 10:07:52;;;;;;;3.13;2.05;;;15.50;99.90;;;18.30;59.36;97295.97;5016143;28;20413;-45
2023/04/28 10:10:20;;;;;;;2.17;1.92;;;15.50;99.90;;;18.36;59.25;97291.59;5024793;28;20405;-46
2023/04/28 10:12:50;;;;;;;2.38;2.03;;;15.60;99.90;;;18.40;59.45;97291.97;5033391;28;20519;-46
2023/04/28 10:15:17;;;;;;;2.40;2.20;;;15.70;99.90;;;18.33;60.30;97285.81;5032576;28;20046;-48
2023/04/28 10:17:49;;;;;;;2.25;1.88;;;15.60;99.90;;;18.50;59.98;97287.72;5033241;28;20045;-45
2023/04/28 10:20:18;;;;;;;1.92;1.73;;;15.70;99.90;;;18.67;59.73;97279.09;5032072;28;20042;-45
2023/04/28 10:23:01;;;;;;;1.95;1.80;;;15.90;99.90;;;18.56;60.55;97280.63;5033389;28;20216;-45
2023/04/28 10:25:32;;;;;;;2.50;1.50;;;15.90;99.90;;;18.56;60.67;97282.50;5026070;28;20042;-46
2023/04/28 10:28:06;;;;;;;1.55;1.20;;;15.90;99.90;;;18.64;60.12;97288.44;5032130;28;20049;-45
2023/04/28 10:30:34;;;;;;;1.85;1.60;;;16.00;99.90;;;18.61;60.66;97285.34;5032285;28;20060;-46